LROP Airport Information

Runway Information
Runway 08R Length 11484 ft width 148 ft
Elevation 314 ft Threshold ft Heading 84
Runway 26L Length 11484 ft Width 148 ft
Elevation 303 ft Threshold ft Heading 264
Runway 08L Length 11484 ft width 148 ft
Elevation 313 ft Threshold ft Heading 84
Runway 26R Length 11484 ft Width 148 ft
Elevation 303 ft Threshold ft Heading 264
Airport Frequencies
Type APP Name BUCURESTI Frequency 118.25 MHZ
Type ATIS Name OTOPENI AT Frequency 118.5 MHZ
Type GND Name OTOPENI GN Frequency 121.7 MHZ
Type TWR Name OTOPENI TW Frequency 120.9 MHZ
Airport Navaids
Type VOR-DME Name Floresti Frequency 112200 KHZ
Type NDB Name Otopeni Frequency 349 KHZ
Type NDB Name Otopeni Frequency 268 KHZ
Type NDB Name Otopeni Frequency 370 KHZ
Type VOR-DME Name Strejnic Frequency 113200 KHZ
Airport Weather Information & NOTAM
ADDS - METARS form results

(1417 UTC 29 September 2022)
Data provider http://aviationweather.gov/metar/data/
 
METAR text: LROP 291400Z 24010KT 210V270 CAVOK 27/10 Q1006 NOSIG
Conditions at: LROP (BUCHAREST/OTOPEN, RO) observed 1400 UTC 29 September 2022
Temperature: 27.0°C (81°F)
Dewpoint: 10.0°C (50°F) [RH = 34%]
Pressure (altimeter): 29.70 inches Hg (1006.0 mb)
Winds: from the WSW (240 degrees) at 12 MPH (10 knots; 5.1 m/s)
Visibility: 6 or more miles (10+ km)
Ceiling: ceiling and visibility are OK
Clouds: unknown
Weather: no significant weather observed at this time

METAR text: LROP 291330Z 22010KT CAVOK 27/10 Q1006 NOSIG
Conditions at: LROP (BUCHAREST/OTOPEN, RO) observed 1330 UTC 29 September 2022
Temperature: 27.0°C (81°F)
Dewpoint: 10.0°C (50°F) [RH = 34%]
Pressure (altimeter): 29.70 inches Hg (1006.0 mb)
Winds: from the SW (220 degrees) at 12 MPH (10 knots; 5.1 m/s)
Visibility: 6 or more miles (10+ km)
Ceiling: ceiling and visibility are OK
Clouds: unknown
Weather: no significant weather observed at this time

Forecast for: LROP (BUCHAREST/OTOPEN, RO)
Text: TAF LROP 291100Z 2912/3012 23006KT CAVOK
Forecast period: 1200 UTC 29 September 2022 to 1200 UTC 30 September 2022
Forecast type: FROM: standard forecast or significant change
Winds: from the SW (230 degrees) at 7 MPH (6 knots; 3.1 m/s)
Visibility: 6 or more miles (10+ km)
Ceiling: unknown
Clouds: missing
Weather: NSW  (no significant weather)
Text: TEMPO 2914/2918 30016KT
Forecast period: 1400 to 1800 UTC 29 September 2022
Forecast type: TEMPORARY: The following changes expected for less than half the time period
Winds: from the WNW (300 degrees) at 18 MPH (16 knots; 8.2 m/s)
Visibility: missing
Ceiling: unknown
Clouds: missing
Weather: no significant weather forecast for this period